Time;durP1;ratioP1;P1;durP2;ratioP2;P2;SDS_P1;SDS_P2;PMS_P1;PMS_P2;Temp;Humidity;BMP_temperature;BMP_pressure;BME280_temperature;BME280_humidity;BME280_pressure;Samples;Min_cycle;Max_cycle;Signal;HPM_P1;HPM_P2
2022/09/02 00:02:22;;;;;;;1.70;1.02;;;23.90;97.30;;;;;;10513776;28;20221;-84
2022/09/02 00:07:25;;;;;;;1.25;1.00;;;23.90;97.30;;;;;;10533892;28;20221;-84
2022/09/02 00:12:27;;;;;;;1.17;0.88;;;23.90;97.30;;;;;;10476553;28;20238;-84
2022/09/02 00:17:30;;;;;;;1.08;0.98;;;23.80;97.30;;;;;;10500017;28;20508;-84
2022/09/02 00:22:32;;;;;;;1.85;0.90;;;23.80;97.30;;;;;;10532847;28;20389;-84
2022/09/02 00:27:35;;;;;;;1.45;0.90;;;23.80;97.40;;;;;;10532326;28;20209;-84
2022/09/02 00:32:38;;;;;;;2.08;1.30;;;23.70;97.30;;;;;;10513891;28;20247;-84
2022/09/02 00:37:41;;;;;;;1.63;1.13;;;23.70;97.40;;;;;;10533363;28;20686;-84
2022/09/02 00:42:44;;;;;;;1.83;1.15;;;23.70;97.50;;;;;;10530893;28;20278;-84
2022/09/02 00:47:49;;;;;;;1.35;1.00;;;23.70;97.50;;;;;;10513573;28;20243;-84
2022/09/02 00:52:56;;;;;;;1.67;1.05;;;23.70;97.50;;;;;;10514891;28;20241;-84
2022/09/02 00:58:06;;;;;;;1.17;0.95;;;23.60;97.50;;;;;;10515086;28;20257;-84
2022/09/02 01:03:14;;;;;;;1.20;0.98;;;23.60;97.60;;;;;;10520010;28;20243;-84
2022/09/02 01:08:23;;;;;;;2.63;1.00;;;23.60;97.70;;;;;;10539620;28;20569;-84
2022/09/02 01:13:30;;;;;;;1.65;1.27;;;23.60;97.60;;;;;;10522262;28;20251;-84
2022/09/02 01:18:32;;;;;;;1.75;1.30;;;23.50;97.60;;;;;;10521587;28;20217;-84
2022/09/02 01:23:36;;;;;;;2.05;1.20;;;23.60;97.50;;;;;;10519649;28;20318;-84
2022/09/02 01:28:39;;;;;;;1.10;0.70;;;23.50;97.50;;;;;;10538763;28;20639;-84
2022/09/02 01:33:42;;;;;;;1.23;1.08;;;23.50;97.60;;;;;;10538734;28;20279;-84
2022/09/02 01:38:46;;;;;;;1.52;1.02;;;23.50;97.60;;;;;;10519554;28;20257;-84
2022/09/02 01:43:49;;;;;;;1.85;1.17;;;23.40;97.60;;;;;;10521557;28;20267;-84
2022/09/02 01:48:51;;;;;;;1.42;1.20;;;23.40;97.60;;;;;;10520397;28;20732;-84
2022/09/02 01:53:54;;;;;;;1.73;1.00;;;23.40;97.50;;;;;;10502018;28;20245;-84
2022/09/02 01:58:57;;;;;;;1.48;1.10;;;23.40;97.80;;;;;;10519309;28;20249;-84
2022/09/02 02:04:01;;;;;;;2.03;1.30;;;23.40;97.60;;;;;;10519724;28;20198;-84
2022/09/02 02:09:03;;;;;;;2.92;1.30;;;23.40;97.60;;;;;;10517253;28;20291;-84
2022/09/02 02:14:07;;;;;;;1.38;0.95;;;23.30;97.60;;;;;;10534693;28;20562;-84
2022/09/02 02:19:10;;;;;;;1.73;1.30;;;23.30;97.70;;;;;;10518447;28;20306;-84
2022/09/02 02:24:13;;;;;;;1.75;1.15;;;23.20;97.60;;;;;;10535157;28;20555;-84
2022/09/02 02:29:16;;;;;;;2.40;1.17;;;23.20;97.60;;;;;;10536120;28;20237;-84
2022/09/02 02:34:19;;;;;;;1.80;1.05;;;23.20;97.60;;;;;;10518302;28;20201;-84
2022/09/02 02:39:21;;;;;;;1.40;1.00;;;23.20;97.60;;;;;;10517404;28;20320;-84
2022/09/02 02:44:26;;;;;;;1.23;0.70;;;23.20;97.60;;;;;;10541830;28;20202;-84
2022/09/02 02:49:29;;;;;;;1.90;1.30;;;23.20;97.60;;;;;;10513485;28;20245;-84
2022/09/02 02:54:32;;;;;;;1.52;1.10;;;23.20;97.50;;;;;;10539505;28;20206;-84
2022/09/02 02:59:37;;;;;;;1.33;1.10;;;23.10;97.50;;;;;;10512932;28;20325;-84
2022/09/02 03:04:41;;;;;;;1.77;1.20;;;23.10;97.50;;;;;;10515254;28;20688;-84
2022/09/02 03:09:44;;;;;;;1.15;1.05;;;23.10;97.40;;;;;;10512181;28;20237;-84
2022/09/02 03:14:48;;;;;;;2.05;1.20;;;23.10;97.40;;;;;;10513414;28;20259;-84
2022/09/02 03:19:53;;;;;;;1.10;0.90;;;23.10;97.40;;;;;;10515548;28;20253;-84
2022/09/02 03:24:56;;;;;;;2.08;1.10;;;23.10;97.40;;;;;;10514738;28;20709;-84
2022/09/02 03:29:59;;;;;;;1.73;1.45;;;23.00;97.40;;;;;;10515997;28;20310;-84
2022/09/02 03:35:03;;;;;;;1.15;0.93;;;23.00;97.30;;;;;;10515642;28;20209;-84
2022/09/02 03:40:10;;;;;;;2.28;1.15;;;23.00;97.30;;;;;;10516382;28;20225;-85
2022/09/02 03:45:14;;;;;;;1.58;1.13;;;23.00;97.20;;;;;;10514138;28;20255;-83
2022/09/02 03:50:26;;;;;;;2.90;1.20;;;23.00;97.20;;;;;;10532721;28;20654;-83
2022/09/02 03:55:29;;;;;;;1.98;1.30;;;23.00;97.10;;;;;;10530817;28;20218;-83
2022/09/02 04:00:32;;;;;;;2.20;1.50;;;23.00;97.10;;;;;;10512644;28;20298;-83
2022/09/02 04:05:38;;;;;;;3.05;1.27;;;23.00;97.10;;;;;;10514241;28;20225;-84
2022/09/02 04:10:40;;;;;;;1.40;1.00;;;22.90;97.00;;;;;;10498436;28;20247;-83
2022/09/02 04:15:46;;;;;;;1.10;0.95;;;22.90;97.00;;;;;;10514019;28;20197;-83
2022/09/02 04:20:51;;;;;;;5.95;1.77;;;22.90;97.00;;;;;;10514196;28;20260;-83
2022/09/02 04:25:55;;;;;;;2.10;1.20;;;22.90;97.00;;;;;;10513672;28;20249;-83
2022/09/02 04:30:57;;;;;;;2.47;2.03;;;22.90;96.90;;;;;;10497085;28;20225;-83
2022/09/02 04:36:04;;;;;;;2.30;1.20;;;21.50;86.40;;;;;;10519728;28;20223;-83
2022/09/02 04:41:09;;;;;;;2.08;1.45;;;21.40;86.60;;;;;;10521283;28;20241;-83
2022/09/02 04:46:13;;;;;;;2.40;1.30;;;21.90;85.30;;;;;;10522209;28;20255;-83
2022/09/02 04:51:20;;;;;;;3.22;1.50;;;22.20;84.70;;;;;;10497079;28;20224;-83
2022/09/02 04:56:27;;;;;;;9.60;2.45;;;22.20;86.00;;;;;;10496565;28;20244;-83
2022/09/02 05:01:34;;;;;;;2.97;1.30;;;22.40;85.50;;;;;;10518112;28;20813;-83
2022/09/02 05:06:43;;;;;;;2.83;1.13;;;22.50;85.60;;;;;;10521281;28;20235;-83
2022/09/02 05:11:56;;;;;;;1.38;1.05;;;22.50;86.10;;;;;;10520879;28;20209;-83
2022/09/02 05:17:01;;;;;;;1.90;1.20;;;22.50;86.60;;;;;;10527364;28;20245;-83
2022/09/02 05:22:11;;;;;;;1.27;1.05;;;22.50;87.40;;;;;;10520636;28;20265;-84
2022/09/02 05:27:16;;;;;;;1.30;1.10;;;22.60;87.80;;;;;;10504145;28;20238;-84
2022/09/02 05:32:22;;;;;;;2.03;1.17;;;22.60;88.20;;;;;;10519331;28;20365;-83
2022/09/02 05:37:26;;;;;;;2.97;1.30;;;22.60;89.00;;;;;;10504278;28;20204;-85
2022/09/02 05:42:30;;;;;;;3.90;1.50;;;22.70;89.30;;;;;;10503649;28;20369;-83
2022/09/02 05:47:34;;;;;;;1.80;1.20;;;22.70;89.60;;;;;;10516241;28;20603;-84
2022/09/02 05:52:37;;;;;;;7.90;2.50;;;22.70;90.00;;;;;;10517442;28;20693;-82
2022/09/02 05:57:39;;;;;;;3.63;1.67;;;22.00;91.60;;;;;;10538237;28;20282;-82
2022/09/02 06:02:43;;;;;;;2.33;1.25;;;22.10;91.80;;;;;;10503752;28;20237;-82
2022/09/02 06:07:53;;;;;;;2.65;1.30;;;22.20;91.80;;;;;;10518947;28;20205;-82
2022/09/02 06:12:58;;;;;;;1.80;1.25;;;22.30;91.80;;;;;;10516646;28;20198;-83
2022/09/02 06:18:03;;;;;;;30.95;3.25;;;22.40;91.60;;;;;;10508847;28;20257;-82
2022/09/02 06:23:07;;;;;;;10.70;1.90;;;21.60;94.60;;;;;;10508540;28;20306;-83
2022/09/02 06:28:13;;;;;;;24.80;2.85;;;22.40;93.20;;;;;;10515874;28;20687;-83
2022/09/02 06:33:18;;;;;;;13.38;1.50;;;22.40;93.60;;;;;;10513933;28;20233;-84
2022/09/02 06:38:22;;;;;;;11.07;3.03;;;23.10;91.80;;;;;;10515970;28;20253;-83
2022/09/02 06:43:26;;;;;;;12.10;1.55;;;23.50;91.00;;;;;;10517845;28;20202;-84
2022/09/02 06:48:52;;;;;;;10.32;2.10;;;23.70;90.30;;;;;;10508440;28;20278;-84
2022/09/02 06:54:30;;;;;;;6.20;1.33;;;24.00;89.30;;;;;;10504089;28;20294;-83
2022/09/02 06:59:47;;;;;;;5.65;1.40;;;24.20;88.60;;;;;;10497903;28;20253;-83
2022/09/02 07:05:08;;;;;;;5.45;1.80;;;24.20;88.10;;;;;;10514112;28;20233;-83
2022/09/02 07:10:12;;;;;;;3.65;1.30;;;24.40;87.30;;;;;;10498406;28;20244;-84
2022/09/02 07:15:18;;;;;;;4.22;0.93;;;24.50;86.70;;;;;;10515235;28;20271;-84
2022/09/02 07:20:21;;;;;;;8.45;1.17;;;24.60;86.10;;;;;;10513292;28;20257;-83
2022/09/02 07:25:29;;;;;;;2.10;1.02;;;24.70;86.10;;;;;;10512263;28;20229;-83
2022/09/02 07:30:31;;;;;;;2.78;1.15;;;24.70;85.90;;;;;;10513512;28;20290;-84
2022/09/02 07:35:43;;;;;;;6.93;0.80;;;24.70;85.50;;;;;;10516366;28;20209;-83
2022/09/02 07:40:49;;;;;;;1.40;0.57;;;24.80;85.10;;;;;;10512973;28;20257;-83
2022/09/02 07:45:59;;;;;;;3.63;0.75;;;24.90;84.60;;;;;;10513809;28;20237;-83
2022/09/02 07:51:04;;;;;;;3.15;0.88;;;24.90;84.30;;;;;;10512852;28;20709;-83
2022/09/02 07:56:07;;;;;;;2.97;0.90;;;25.00;84.30;;;;;;10471126;28;20287;-83
2022/09/02 08:01:11;;;;;;;6.40;0.90;;;25.10;83.80;;;;;;10455283;28;20790;-83
2022/09/02 08:06:15;;;;;;;3.22;0.60;;;24.50;85.20;;;;;;10473078;28;20613;-82
2022/09/02 08:11:23;;;;;;;4.90;0.52;;;19.10;92.50;;;;;;10466063;28;20299;-83
2022/09/02 08:16:25;;;;;;;0.63;0.50;;;20.10;97.20;;;;;;10463432;28;20234;-83
2022/09/02 08:21:28;;;;;;;2.60;0.75;;;21.00;95.10;;;;;;10470767;28;20258;-83
2022/09/02 08:26:35;;;;;;;1.95;0.50;;;21.60;92.50;;;;;;10473060;28;20256;-82
2022/09/02 08:31:38;;;;;;;2.17;0.38;;;20.50;93.40;;;;;;10472354;28;20233;-82
2022/09/02 08:36:42;;;;;;;1.55;0.50;;;18.20;97.00;;;;;;10490578;28;20259;-82
2022/09/02 08:42:19;;;;;;;1.70;0.50;;;18.90;96.00;;;;;;10491424;28;20762;-82
2022/09/02 08:47:28;;;;;;;4.38;0.40;;;18.60;97.90;;;;;;10489277;28;20617;-82
2022/09/02 08:52:58;;;;;;;0.75;0.55;;;19.20;95.80;;;;;;10472278;28;20233;-82
2022/09/02 08:58:01;;;;;;;0.20;0.20;;;18.80;99.00;;;;;;10489389;28;20264;-84
2022/09/02 09:03:17;;;;;;;3.90;0.82;;;19.80;90.80;;;;;;10488300;28;20226;-83
2022/09/02 09:08:48;;;;;;;2.97;0.55;;;20.10;99.90;;;;;;10472209;28;20251;-83
2022/09/02 09:14:02;;;;;;;0.80;0.38;;;19.30;92.40;;;;;;10471546;28;20264;-83
2022/09/02 09:19:10;;;;;;;0.95;0.45;;;20.00;99.90;;;;;;10452209;28;20295;-84
2022/09/02 09:24:20;;;;;;;0.47;0.28;;;20.80;93.50;;;;;;10476600;28;20246;-86
2022/09/02 09:29:23;;;;;;;3.30;0.60;;;19.70;90.30;;;;;;10474765;28;20252;-85
2022/09/02 09:35:08;;;;;;;2.47;0.57;;;19.60;99.90;;;;;;10494560;28;20287;-86
2022/09/02 09:40:20;;;;;;;10.43;0.40;;;19.80;86.00;;;;;;10460695;28;20664;-86
2022/09/02 09:45:31;;;;;;;0.63;0.30;;;20.70;99.90;;;;;;10491875;28;20233;-86
2022/09/02 09:50:33;;;;;;;0.40;0.22;;;19.80;86.70;;;;;;10480460;28;20620;-86
2022/09/02 09:55:48;;;;;;;2.85;0.30;;;20.10;84.20;;;;;;10493127;28;20256;-82
2022/09/02 10:00:55;;;;;;;0.65;0.30;;;20.40;86.60;;;;;;10476424;28;20300;-82
2022/09/02 10:06:15;;;;;;;0.30;0.20;;;19.40;86.60;;;;;;10486651;28;20237;-83
2022/09/02 10:11:33;;;;;;;0.80;0.38;;;20.60;99.20;;;;;;10476826;28;20238;-82
2022/09/02 10:17:08;;;;;;;1.45;0.30;;;22.10;90.50;;;;;;10492003;28;20267;-83
2022/09/02 10:22:16;;;;;;;3.45;0.35;;;20.40;79.80;;;;;;10491699;28;20716;-83
2022/09/02 10:28:02;;;;;;;0.65;0.50;;;21.00;78.10;;;;;;10471180;28;20233;-83
2022/09/02 10:33:23;;;;;;;2.03;0.50;;;20.70;91.10;;;;;;10473991;28;20230;-82
2022/09/02 10:38:36;;;;;;;1.45;0.35;;;22.60;95.90;;;;;;10477254;28;20561;-82
2022/09/02 10:44:09;;;;;;;0.68;0.40;;;23.40;88.10;;;;;;10494666;28;20242;-82
2022/09/02 10:49:33;;;;;;;1.15;0.35;;;23.60;83.80;;;;;;10494493;28;20293;-82
2022/09/02 10:55:16;;;;;;;0.50;0.30;;;23.70;82.00;;;;;;10476031;28;20246;-82
2022/09/02 11:00:21;;;;;;;0.75;0.30;;;23.60;70.50;;;;;;10492699;28;20621;-82
2022/09/02 11:05:42;;;;;;;2.55;0.35;;;23.70;83.20;;;;;;10491138;28;20514;-83
2022/09/02 11:10:59;;;;;;;5.90;0.70;;;22.70;64.20;;;;;;10489625;28;20909;-83
2022/09/02 11:16:13;;;;;;;3.50;0.57;;;23.60;74.60;;;;;;10474191;28;20261;-83
2022/09/02 11:21:35;;;;;;;4.28;0.65;;;24.50;71.00;;;;;;10450769;28;20246;-83
2022/09/02 11:26:48;;;;;;;7.60;0.63;;;25.10;68.40;;;;;;10417597;28;20207;-83
2022/09/02 11:32:14;;;;;;;5.22;0.40;;;25.40;67.30;;;;;;10471573;28;20252;-85
2022/09/02 11:37:32;;;;;;;2.38;0.40;;;25.50;66.20;;;;;;9772466;28;10000598;-85
2022/09/02 11:42:46;;;;;;;3.88;0.35;;;25.70;66.10;;;;;;10471740;28;20257;-85
2022/09/02 11:48:04;;;;;;;2.75;0.70;;;25.80;65.60;;;;;;10488534;28;20222;-85
2022/09/02 11:53:26;;;;;;;4.28;0.40;;;26.00;65.40;;;;;;10488320;28;20279;-82
2022/09/02 11:58:39;;;;;;;3.97;0.60;;;26.00;65.30;;;;;;10487767;28;20693;-83
2022/09/02 12:03:52;;;;;;;2.95;0.40;;;25.90;65.50;;;;;;10487582;28;21049;-83
2022/09/02 12:09:45;;;;;;;2.35;0.22;;;24.70;60.20;;;;;;10488138;28;20237;-83
2022/09/02 12:14:48;;;;;;;0.45;0.20;;;22.70;56.10;;;;;;10471261;28;20206;-83
2022/09/02 12:19:51;;;;;;;2.08;0.60;;;23.70;61.60;;;;;;10487383;28;20258;-83
2022/09/02 12:24:56;;;;;;;3.08;0.30;;;23.70;86.90;;;;;;10487077;28;20299;-82
2022/09/02 12:29:59;;;;;;;0.82;0.30;;;24.00;77.50;;;;;;10470125;28;20757;-83
2022/09/02 12:35:12;;;;;;;0.82;0.40;;;23.60;61.20;;;;;;10469778;28;20869;-83
2022/09/02 12:40:23;;;;;;;1.88;0.40;;;23.60;67.40;;;;;;10442157;28;20280;-82
2022/09/02 12:45:31;;;;;;;0.40;0.30;;;22.20;57.70;;;;;;10469279;28;20260;-82
2022/09/02 12:50:43;;;;;;;0.60;0.28;;;24.00;89.00;;;;;;10486891;28;20233;-83
2022/09/02 12:56:15;;;;;;;2.17;0.40;;;25.50;70.10;;;;;;10491329;28;20664;-83
2022/09/02 13:01:53;;;;;;;0.70;0.40;;;21.60;94.60;;;;;;10478111;28;20676;-83
2022/09/02 13:07:31;;;;;;;2.58;0.30;;;23.00;92.20;;;;;;10477091;28;20287;-84
2022/09/02 13:12:49;;;;;;;1.40;0.40;;;22.80;94.70;;;;;;10461770;28;20242;-84
2022/09/02 13:18:26;;;;;;;2.97;0.38;;;22.50;60.70;;;;;;10495564;28;20601;-84
2022/09/02 13:23:34;;;;;;;1.23;0.50;;;21.60;96.20;;;;;;10498083;28;20319;-85
2022/09/02 13:28:59;;;;;;;4.65;0.68;;;21.60;72.00;;;;;;10496185;28;20768;-84
2022/09/02 13:34:12;;;;;;;1.35;0.57;;;21.70;64.50;;;;;;10496125;28;20237;-84
2022/09/02 13:39:22;;;;;;;2.30;0.40;;;23.70;92.60;;;;;;10496412;28;20300;-83
2022/09/02 13:44:30;;;;;;;0.63;0.32;;;24.60;88.40;;;;;;10497310;28;20230;-83
2022/09/02 13:49:36;;;;;;;22.50;1.20;;;25.30;83.70;;;;;;10478243;28;20241;-82
2022/09/02 13:55:03;;;;;;;4.78;0.40;;;25.60;79.00;;;;;;10459348;28;20276;-82
2022/09/02 14:00:06;;;;;;;1.35;0.40;;;23.70;57.20;;;;;;10476223;28;20304;-82
2022/09/02 14:05:19;;;;;;;1.95;0.38;;;22.80;71.50;;;;;;10482146;28;20629;-82
2022/09/02 14:10:26;;;;;;;3.45;0.45;;;22.20;64.90;;;;;;10477022;28;20215;-82
2022/09/02 14:15:30;;;;;;;1.67;0.47;;;23.00;82.20;;;;;;10496110;28;20255;-82
2022/09/02 14:20:33;;;;;;;3.05;0.63;;;22.40;75.00;;;;;;10495273;28;20250;-83
2022/09/02 14:25:38;;;;;;;2.20;0.82;;;22.80;70.10;;;;;;10492954;28;20277;-82
2022/09/02 14:30:41;;;;;;;3.17;0.85;;;23.10;92.60;;;;;;10491912;28;20230;-82
2022/09/02 14:35:59;;;;;;;2.15;0.40;;;21.40;98.00;;;;;;10561480;22;20326;-93
2022/09/02 14:41:10;;;;;;;1.10;0.40;;;22.50;68.00;;;;;;10463958;28;20222;-95
2022/09/02 14:46:28;;;;;;;1.13;0.20;;;23.40;65.90;;;;;;10464751;28;20206;-93
2022/09/02 14:51:49;;;;;;;1.55;0.40;;;23.60;59.20;;;;;;10505544;28;20240;-93
2022/09/02 14:56:52;;;;;;;4.47;0.75;;;23.70;65.00;;;;;;10472785;28;20214;-95
2022/09/02 15:01:58;;;;;;;3.83;0.30;;;24.00;62.60;;;;;;10479119;28;20230;-94
2022/09/02 15:07:01;;;;;;;0.30;0.30;;;23.60;62.80;;;;;;10508030;28;20206;-96
2022/09/02 15:12:04;;;;;;;1.10;0.40;;;23.80;61.80;;;;;;10491326;28;20264;-93
2022/09/02 15:17:09;;;;;;;3.47;0.70;;;;;;;;;;10471709;28;20232;-92
2022/09/02 15:22:11;;;;;;;3.83;0.68;;;24.10;60.90;;;;;;10468280;28;20240;-94
2022/09/02 15:27:15;;;;;;;1.02;0.40;;;24.10;55.60;;;;;;10466567;28;20210;-95
2022/09/02 15:32:25;;;;;;;1.23;0.20;;;24.10;62.00;;;;;;10497371;28;20247;-93
2022/09/02 15:37:28;;;;;;;0.75;0.30;;;24.20;60.80;;;;;;10468348;28;20230;-93
2022/09/02 15:42:33;;;;;;;1.95;0.30;;;24.30;61.90;;;;;;10483624;28;20260;-93
2022/09/02 15:47:37;;;;;;;1.60;0.40;;;24.20;60.70;;;;;;10462405;28;20682;-94
2022/09/02 15:52:39;;;;;;;0.30;0.20;;;24.00;64.00;;;;;;10496255;28;20610;-93
2022/09/02 15:57:42;;;;;;;0.75;0.32;;;24.00;64.50;;;;;;10478152;28;20202;-94
2022/09/02 16:02:44;;;;;;;0.85;0.38;;;24.00;65.20;;;;;;10494273;28;20256;-93
2022/09/02 16:07:47;;;;;;;0.98;0.28;;;24.00;66.00;;;;;;10461521;28;20198;-95
2022/09/02 16:12:50;;;;;;;3.05;0.57;;;24.00;66.40;;;;;;10463075;28;20627;-94
2022/09/02 16:17:52;;;;;;;1.25;0.40;;;23.80;67.40;;;;;;10462578;28;20218;-95
2022/09/02 16:22:55;;;;;;;0.63;0.40;;;23.80;67.60;;;;;;10479319;28;20222;-95
2022/09/02 16:27:57;;;;;;;0.88;0.40;;;23.90;67.80;;;;;;10462444;28;20248;-94
2022/09/02 16:33:00;;;;;;;1.52;0.30;;;24.00;67.80;;;;;;10486848;28;20658;-95
2022/09/02 16:38:03;;;;;;;0.50;0.28;;;24.00;67.80;;;;;;10471064;28;20263;-93
2022/09/02 16:43:07;;;;;;;0.22;0.20;;;24.00;68.10;;;;;;10487891;28;20214;-95
2022/09/02 16:48:09;;;;;;;3.95;0.30;;;24.00;68.40;;;;;;10471698;28;20299;-95
2022/09/02 16:53:12;;;;;;;0.50;0.47;;;23.90;68.50;;;;;;10485909;28;20202;-94
2022/09/02 16:58:14;;;;;;;0.95;0.40;;;23.80;69.30;;;;;;10484978;28;20214;-93
2022/09/02 17:03:17;;;;;;;0.22;0.20;;;23.80;69.70;;;;;;10484076;28;20230;-93
2022/09/02 17:08:20;;;;;;;0.25;0.20;;;23.70;70.40;;;;;;10466805;28;20252;-94
2022/09/02 17:13:22;;;;;;;1.15;0.43;;;23.70;70.90;;;;;;10499779;28;20587;-92
2022/09/02 17:18:25;;;;;;;0.70;0.30;;;23.60;71.50;;;;;;10465451;28;20206;-95
2022/09/02 17:23:28;;;;;;;0.65;0.28;;;23.60;72.40;;;;;;10465207;28;20226;-93
2022/09/02 17:28:30;;;;;;;0.70;0.40;;;23.50;73.60;;;;;;10464026;28;20574;-94
2022/09/02 17:33:34;;;;;;;0.52;0.30;;;23.40;75.20;;;;;;10480619;28;20210;-92
2022/09/02 17:38:37;;;;;;;1.20;0.30;;;23.30;75.90;;;;;;10496859;28;20238;-93
2022/09/02 17:43:40;;;;;;;0.40;0.30;;;23.20;76.50;;;;;;10498685;28;20598;-93
2022/09/02 17:48:42;;;;;;;0.30;0.22;;;23.10;77.30;;;;;;10464623;28;20647;-91
2022/09/02 17:54:08;;;;;;;1.17;0.40;;;23.10;78.20;;;;;;10480498;28;20690;-94
2022/09/02 17:59:45;;;;;;;0.60;0.40;;;23.00;78.40;;;;;;10463352;28;20865;-92
2022/09/02 18:04:59;;;;;;;0.82;0.38;;;23.00;78.80;;;;;;10479854;28;20766;-92
2022/09/02 18:10:02;;;;;;;0.52;0.30;;;23.00;79.50;;;;;;10462961;28;20228;-95
2022/09/02 18:15:05;;;;;;;1.65;0.60;;;23.00;79.90;;;;;;10463240;28;20202;-94
2022/09/02 18:20:18;;;;;;;2.38;0.30;;;22.90;80.00;;;;;;10480120;28;20268;-95
2022/09/02 18:25:49;;;;;;;0.57;0.35;;;22.90;80.20;;;;;;10462878;28;20217;-93
2022/09/02 18:31:19;;;;;;;2.00;0.60;;;22.90;80.40;;;;;;10462141;28;20202;-93
2022/09/02 18:36:41;;;;;;;2.05;0.50;;;22.90;80.80;;;;;;10478935;28;20788;-92
2022/09/02 18:42:20;;;;;;;0.77;0.40;;;22.80;81.10;;;;;;10478219;28;20237;-94
2022/09/02 18:47:27;;;;;;;0.68;0.50;;;22.80;81.70;;;;;;10461871;28;20203;-93
2022/09/02 18:52:30;;;;;;;12.23;1.65;;;22.80;82.10;;;;;;10469846;28;20198;-86
2022/09/02 18:57:41;;;;;;;9.48;2.03;;;21.10;67.40;;;;;;10517078;28;20643;-86
2022/09/02 19:03:00;;;;;;;7.53;1.73;;;21.20;84.10;;;;;;10522129;28;20301;-86
2022/09/02 19:14:01;;;;;;;4.57;1.08;;;23.40;72.00;;;;;;10520230;28;20225;-85
2022/09/02 19:19:09;;;;;;;6.25;1.10;;;23.80;69.80;;;;;;10488322;28;20281;-86
2022/09/02 19:24:22;;;;;;;4.68;0.90;;;24.10;68.70;;;;;;10503402;28;20237;-86
2022/09/02 19:29:25;;;;;;;7.30;1.63;;;24.30;67.90;;;;;;10503127;28;20657;-87
2022/09/02 19:34:32;;;;;;;5.03;2.63;;;;;;;;;;10501467;28;20294;-86
2022/09/02 19:39:35;;;;;;;10.83;2.50;;;13.10;99.90;;;;;;10475954;28;20257;-87
2022/09/02 19:44:38;;;;;;;8.67;2.53;;;12.50;99.90;;;;;;10479169;28;20253;-86
2022/09/02 19:49:41;;;;;;;12.43;3.50;;;12.80;99.90;;;;;;10478854;28;22399;-86
2022/09/02 19:54:44;;;;;;;15.53;4.50;;;11.90;99.90;;;;;;10471409;28;20297;-86
2022/09/02 19:59:46;;;;;;;7.73;1.80;;;11.60;99.90;;;;;;10483798;28;20226;-86
2022/09/02 20:04:49;;;;;;;43.03;6.20;;;15.20;99.90;;;;;;10488261;28;20663;-85
2022/09/02 20:09:52;;;;;;;27.20;4.45;;;19.70;98.90;;;;;;10472104;28;20245;-86
2022/09/02 20:14:54;;;;;;;34.60;4.70;;;21.60;91.60;;;;;;10489429;28;20229;-86
2022/09/02 20:20:00;;;;;;;13.48;3.88;;;22.80;82.50;;;;;;10449123;28;20632;-86
2022/09/02 20:25:02;;;;;;;18.98;4.20;;;23.30;77.00;;;;;;10459448;28;20249;-86
2022/09/02 20:30:07;;;;;;;15.88;3.50;;;23.80;73.90;;;;;;10467797;28;20679;-86
2022/09/02 20:35:51;;;;;;;16.73;3.10;;;24.00;72.00;;;;;;10468586;28;20280;-86
2022/09/02 20:41:18;;;;;;;11.98;3.20;;;24.20;71.40;;;;;;10309723;28;20267;-87
2022/09/02 20:46:48;;;;;;;13.25;2.53;;;24.30;70.40;;;;;;10358200;28;20240;-86
2022/09/02 20:51:58;;;;;;;12.18;2.92;;;24.40;70.10;;;;;;10344411;28;20279;-86
2022/09/02 20:57:15;;;;;;;9.43;2.97;;;24.40;70.00;;;;;;10319413;28;20284;-86
2022/09/02 21:02:22;;;;;;;8.45;2.20;;;24.40;70.00;;;;;;10319439;28;20310;-87
2022/09/02 21:07:50;;;;;;;8.25;2.53;;;24.40;70.10;;;;;;10354873;28;20233;-86
2022/09/02 21:13:07;;;;;;;10.27;2.13;;;24.40;70.30;;;;;;10481047;28;20242;-86
2022/09/02 21:18:40;;;;;;;8.77;2.03;;;24.40;70.60;;;;;;10533950;28;20650;-86
2022/09/02 21:23:47;;;;;;;8.30;1.85;;;24.40;70.90;;;;;;10513001;28;20750;-86
2022/09/02 21:29:03;;;;;;;7.50;2.33;;;24.40;71.10;;;;;;10521562;28;20257;-87
2022/09/02 21:34:34;;;;;;;2.97;1.67;;;24.40;71.40;;;;;;10499976;28;20241;-87
2022/09/02 21:39:44;;;;;;;11.63;2.30;;;24.40;71.60;;;;;;10483157;28;20257;-87
2022/09/02 21:45:15;;;;;;;4.68;1.92;;;24.40;71.90;;;;;;10496152;28;20250;-87
2022/09/02 21:50:36;;;;;;;5.70;1.63;;;24.40;72.20;;;;;;10494880;28;20230;-86
2022/09/02 21:55:53;;;;;;;11.02;2.17;;;24.40;72.70;;;;;;10493475;28;20878;-87
2022/09/02 22:01:40;;;;;;;5.25;1.33;;;24.30;73.10;;;;;;10477405;28;20292;-86
2022/09/02 22:06:56;;;;;;;5.20;1.77;;;24.30;73.40;;;;;;10493065;28;20230;-87
2022/09/02 22:12:10;;;;;;;3.13;1.60;;;24.30;73.80;;;;;;10480560;28;20691;-86
2022/09/02 22:17:21;;;;;;;5.28;1.70;;;24.20;74.00;;;;;;10454606;28;20914;-86
2022/09/02 22:22:33;;;;;;;3.13;1.52;;;24.20;74.30;;;;;;10487113;28;20249;-86
2022/09/02 22:27:43;;;;;;;3.53;1.63;;;24.20;74.60;;;;;;10479796;28;20662;-87
2022/09/02 22:33:05;;;;;;;2.50;1.40;;;24.20;75.10;;;;;;10492309;28;20257;-86
2022/09/02 22:38:25;;;;;;;2.28;1.52;;;24.10;75.40;;;;;;10493375;28;20230;-87
2022/09/02 22:43:35;;;;;;;5.25;1.55;;;24.10;75.80;;;;;;10478094;28;20264;-87
2022/09/02 22:54:33;;;;;;;3.05;1.80;;;24.10;76.50;;;;;;10491445;28;20263;-86
2022/09/02 22:59:41;;;;;;;2.45;1.40;;;24.10;77.00;;;;;;10489991;28;20549;-86
2022/09/02 23:04:50;;;;;;;2.92;1.40;;;24.00;77.20;;;;;;10486720;28;20250;-87
2022/09/02 23:09:53;;;;;;;3.35;1.70;;;24.00;77.50;;;;;;10466930;28;22684;-86
2022/09/02 23:15:26;;;;;;;3.45;1.70;;;24.00;77.80;;;;;;10492199;28;20232;-87
2022/09/02 23:20:35;;;;;;;2.72;1.70;;;24.00;78.20;;;;;;10479807;28;20839;-87
2022/09/02 23:26:02;;;;;;;6.28;1.52;;;23.90;78.60;;;;;;10490375;28;20762;-86
2022/09/02 23:31:16;;;;;;;2.47;1.58;;;23.90;78.80;;;;;;10462567;28;20206;-87
2022/09/02 23:36:34;;;;;;;1.83;1.30;;;23.90;79.10;;;;;;10476951;28;20257;-86
2022/09/02 23:41:37;;;;;;;1.80;1.27;;;23.80;79.50;;;;;;10479650;28;20214;-86
2022/09/02 23:46:49;;;;;;;1.92;1.50;;;23.80;80.00;;;;;;10507499;28;20270;-87
2022/09/02 23:52:00;;;;;;;3.33;1.90;;;23.80;80.30;;;;;;10516343;28;20224;-86
2022/09/02 23:57:18;;;;;;;2.20;1.45;;;23.80;80.50;;;;;;10523590;28;20210;-86
